Terminal Aerodrome Forecast
Issued by NWS

Home | Current Version | Previous Version | Text Only | Print | Product List | Glossary On
Versions: 1 2 3 4 5 6 7 8 9 10 11 12 13 14 15 16 17 18 19 20 21 22
000
FTUS42 KMHX 292300
TAFOAJ
TAF
KOAJ 292321Z 3000/3024 01006KT P6SM BKN100
     FM300200 05003KT P6SM SKC
     FM300800 03003KT 4SM BR SKC
     FM301300 05005KT P6SM SKC
     FM301700 12006KT P6SM SCT040
      AMD LTD TO CLD VIS AND WIND=

USA.gov is the U.S. government's official web portal to all federal, state and local government web resources and services.